sensor_id;sensor_type;location;lat;lon;timestamp;P1;durP1;ratioP1;P2;durP2;ratioP2
77324;SDS011;66387;53.440;10.390;2023-02-28T00:00:11;6.50;;;4.30;;
77324;SDS011;66387;53.440;10.390;2023-02-28T00:02:38;5.00;;;4.50;;
77324;SDS011;66387;53.440;10.390;2023-02-28T00:05:06;5.53;;;3.95;;
77324;SDS011;66387;53.440;10.390;2023-02-28T00:07:32;5.40;;;3.08;;
77324;SDS011;66387;53.440;10.390;2023-02-28T00:09:57;4.73;;;3.00;;
77324;SDS011;66387;53.440;10.390;2023-02-28T00:12:23;4.60;;;3.20;;
77324;SDS011;66387;53.440;10.390;2023-02-28T00:14:49;4.30;;;2.90;;
77324;SDS011;66387;53.440;10.390;2023-02-28T00:17:17;5.47;;;3.10;;
77324;SDS011;66387;53.440;10.390;2023-02-28T00:22:11;3.10;;;2.47;;
77324;SDS011;66387;53.440;10.390;2023-02-28T00:24:36;3.63;;;2.53;;
77324;SDS011;66387;53.440;10.390;2023-02-28T00:27:01;6.18;;;2.85;;
77324;SDS011;66387;53.440;10.390;2023-02-28T00:29:27;4.35;;;3.85;;
77324;SDS011;66387;53.440;10.390;2023-02-28T00:31:52;4.50;;;3.80;;
77324;SDS011;66387;53.440;10.390;2023-02-28T00:34:17;4.27;;;2.93;;
77324;SDS011;66387;53.440;10.390;2023-02-28T00:36:42;3.83;;;2.90;;
77324;SDS011;66387;53.440;10.390;2023-02-28T00:39:10;4.43;;;2.88;;
77324;SDS011;66387;53.440;10.390;2023-02-28T00:41:36;4.03;;;2.63;;
77324;SDS011;66387;53.440;10.390;2023-02-28T00:44:01;3.30;;;2.53;;
77324;SDS011;66387;53.440;10.390;2023-02-28T00:46:26;4.43;;;2.70;;
77324;SDS011;66387;53.440;10.390;2023-02-28T00:48:51;7.33;;;2.47;;
77324;SDS011;66387;53.440;10.390;2023-02-28T00:51:17;5.17;;;3.10;;
77324;SDS011;66387;53.440;10.390;2023-02-28T00:53:42;4.32;;;2.63;;
77324;SDS011;66387;53.440;10.390;2023-02-28T00:56:07;3.73;;;2.50;;
77324;SDS011;66387;53.440;10.390;2023-02-28T00:58:33;4.33;;;2.93;;
77324;SDS011;66387;53.440;10.390;2023-02-28T01:00:58;5.03;;;2.57;;
77324;SDS011;66387;53.440;10.390;2023-02-28T01:03:23;3.03;;;2.47;;
77324;SDS011;66387;53.440;10.390;2023-02-28T01:05:49;4.32;;;2.33;;
77324;SDS011;66387;53.440;10.390;2023-02-28T01:08:14;3.88;;;2.53;;
77324;SDS011;66387;53.440;10.390;2023-02-28T01:10:40;4.00;;;2.42;;
77324;SDS011;66387;53.440;10.390;2023-02-28T01:13:05;5.55;;;2.70;;
77324;SDS011;66387;53.440;10.390;2023-02-28T01:15:31;4.77;;;2.40;;
77324;SDS011;66387;53.440;10.390;2023-02-28T01:17:57;6.68;;;3.55;;
77324;SDS011;66387;53.440;10.390;2023-02-28T01:20:22;5.15;;;2.58;;
77324;SDS011;66387;53.440;10.390;2023-02-28T01:22:47;4.47;;;2.27;;
77324;SDS011;66387;53.440;10.390;2023-02-28T01:25:13;5.30;;;2.80;;
77324;SDS011;66387;53.440;10.390;2023-02-28T01:27:38;5.72;;;3.13;;
77324;SDS011;66387;53.440;10.390;2023-02-28T01:30:04;5.57;;;3.13;;
77324;SDS011;66387;53.440;10.390;2023-02-28T01:32:31;5.88;;;3.85;;
77324;SDS011;66387;53.440;10.390;2023-02-28T01:34:56;7.78;;;4.55;;
77324;SDS011;66387;53.440;10.390;2023-02-28T01:37:21;7.50;;;3.97;;
77324;SDS011;66387;53.440;10.390;2023-02-28T01:39:46;10.07;;;4.27;;
77324;SDS011;66387;53.440;10.390;2023-02-28T01:42:12;7.67;;;4.73;;
77324;SDS011;66387;53.440;10.390;2023-02-28T01:47:25;7.63;;;4.90;;
77324;SDS011;66387;53.440;10.390;2023-02-28T01:49:54;11.52;;;6.55;;
77324;SDS011;66387;53.440;10.390;2023-02-28T01:52:19;8.15;;;5.75;;
77324;SDS011;66387;53.440;10.390;2023-02-28T01:54:46;11.23;;;5.97;;
77324;SDS011;66387;53.440;10.390;2023-02-28T01:57:16;10.73;;;5.55;;
77324;SDS011;66387;53.440;10.390;2023-02-28T02:00:04;8.63;;;4.45;;
77324;SDS011;66387;53.440;10.390;2023-02-28T02:02:40;7.13;;;4.90;;
77324;SDS011;66387;53.440;10.390;2023-02-28T02:05:12;7.32;;;4.00;;
77324;SDS011;66387;53.440;10.390;2023-02-28T02:07:41;7.40;;;4.50;;
77324;SDS011;66387;53.440;10.390;2023-02-28T02:15:29;6.15;;;3.95;;
77324;SDS011;66387;53.440;10.390;2023-02-28T02:18:03;4.97;;;3.72;;
77324;SDS011;66387;53.440;10.390;2023-02-28T02:28:56;5.50;;;3.88;;
77324;SDS011;66387;53.440;10.390;2023-02-28T02:32:01;4.45;;;3.10;;
77324;SDS011;66387;53.440;10.390;2023-02-28T02:37:27;6.03;;;2.92;;
77324;SDS011;66387;53.440;10.390;2023-02-28T02:42:31;4.93;;;2.30;;
77324;SDS011;66387;53.440;10.390;2023-02-28T02:45:09;5.13;;;2.90;;
77324;SDS011;66387;53.440;10.390;2023-02-28T02:47:39;6.18;;;3.28;;
77324;SDS011;66387;53.440;10.390;2023-02-28T02:50:08;4.35;;;2.95;;
77324;SDS011;66387;53.440;10.390;2023-02-28T02:52:40;4.25;;;2.65;;
77324;SDS011;66387;53.440;10.390;2023-02-28T02:55:09;5.57;;;2.70;;
77324;SDS011;66387;53.440;10.390;2023-02-28T02:57:47;3.67;;;2.53;;
77324;SDS011;66387;53.440;10.390;2023-02-28T03:00:17;3.67;;;2.72;;
77324;SDS011;66387;53.440;10.390;2023-02-28T03:02:48;3.28;;;2.70;;
77324;SDS011;66387;53.440;10.390;2023-02-28T03:05:26;5.43;;;3.03;;
77324;SDS011;66387;53.440;10.390;2023-02-28T03:07:58;3.80;;;2.42;;
77324;SDS011;66387;53.440;10.390;2023-02-28T03:12:57;4.25;;;2.40;;
77324;SDS011;66387;53.440;10.390;2023-02-28T03:15:34;3.92;;;2.72;;
77324;SDS011;66387;53.440;10.390;2023-02-28T03:19:01;5.35;;;2.80;;
77324;SDS011;66387;53.440;10.390;2023-02-28T03:21:19;5.00;;;2.75;;
77324;SDS011;66387;53.440;10.390;2023-02-28T03:23:59;5.53;;;2.72;;
77324;SDS011;66387;53.440;10.390;2023-02-28T03:26:50;4.18;;;2.92;;
77324;SDS011;66387;53.440;10.390;2023-02-28T03:29:32;4.18;;;3.10;;
77324;SDS011;66387;53.440;10.390;2023-02-28T03:32:21;4.13;;;2.83;;
77324;SDS011;66387;53.440;10.390;2023-02-28T03:34:57;4.28;;;2.60;;
77324;SDS011;66387;53.440;10.390;2023-02-28T03:37:30;3.58;;;2.60;;
77324;SDS011;66387;53.440;10.390;2023-02-28T03:40:05;4.57;;;2.70;;
77324;SDS011;66387;53.440;10.390;2023-02-28T03:42:36;7.10;;;3.30;;
77324;SDS011;66387;53.440;10.390;2023-02-28T03:45:08;6.82;;;3.05;;
77324;SDS011;66387;53.440;10.390;2023-02-28T03:50:19;2.90;;;2.45;;
77324;SDS011;66387;53.440;10.390;2023-02-28T03:53:29;4.90;;;2.58;;
77324;SDS011;66387;53.440;10.390;2023-02-28T03:56:07;3.28;;;2.67;;
77324;SDS011;66387;53.440;10.390;2023-02-28T04:01:09;6.87;;;2.63;;
77324;SDS011;66387;53.440;10.390;2023-02-28T04:03:41;5.95;;;2.90;;
77324;SDS011;66387;53.440;10.390;2023-02-28T04:06:07;4.55;;;2.83;;
77324;SDS011;66387;53.440;10.390;2023-02-28T04:08:38;5.85;;;3.58;;
77324;SDS011;66387;53.440;10.390;2023-02-28T04:11:04;4.22;;;2.83;;
77324;SDS011;66387;53.440;10.390;2023-02-28T04:13:37;6.22;;;2.60;;
77324;SDS011;66387;53.440;10.390;2023-02-28T04:16:06;4.13;;;2.23;;
77324;SDS011;66387;53.440;10.390;2023-02-28T04:18:36;3.83;;;2.70;;
77324;SDS011;66387;53.440;10.390;2023-02-28T04:21:05;7.35;;;3.00;;
77324;SDS011;66387;53.440;10.390;2023-02-28T04:23:31;5.35;;;3.08;;
77324;SDS011;66387;53.440;10.390;2023-02-28T04:25:56;4.13;;;2.90;;
77324;SDS011;66387;53.440;10.390;2023-02-28T04:28:21;3.05;;;2.47;;
77324;SDS011;66387;53.440;10.390;2023-02-28T04:30:47;4.50;;;2.50;;
77324;SDS011;66387;53.440;10.390;2023-02-28T04:33:12;4.97;;;2.60;;
77324;SDS011;66387;53.440;10.390;2023-02-28T04:35:37;3.42;;;2.50;;
77324;SDS011;66387;53.440;10.390;2023-02-28T04:38:02;3.57;;;2.70;;
77324;SDS011;66387;53.440;10.390;2023-02-28T04:40:28;4.05;;;2.55;;
77324;SDS011;66387;53.440;10.390;2023-02-28T04:42:53;5.37;;;2.33;;
77324;SDS011;66387;53.440;10.390;2023-02-28T04:45:18;3.67;;;2.50;;
77324;SDS011;66387;53.440;10.390;2023-02-28T04:47:44;4.50;;;2.80;;
77324;SDS011;66387;53.440;10.390;2023-02-28T04:50:09;4.15;;;2.50;;
77324;SDS011;66387;53.440;10.390;2023-02-28T04:52:35;5.10;;;3.45;;
77324;SDS011;66387;53.440;10.390;2023-02-28T04:55:00;7.10;;;2.27;;
77324;SDS011;66387;53.440;10.390;2023-02-28T04:57:25;3.70;;;2.60;;
77324;SDS011;66387;53.440;10.390;2023-02-28T04:59:50;3.20;;;2.13;;
77324;SDS011;66387;53.440;10.390;2023-02-28T05:02:15;3.57;;;2.87;;
77324;SDS011;66387;53.440;10.390;2023-02-28T05:04:41;4.87;;;2.23;;
77324;SDS011;66387;53.440;10.390;2023-02-28T05:07:06;4.20;;;2.57;;
77324;SDS011;66387;53.440;10.390;2023-02-28T05:09:31;4.40;;;2.67;;
77324;SDS011;66387;53.440;10.390;2023-02-28T05:11:58;4.95;;;3.05;;
77324;SDS011;66387;53.440;10.390;2023-02-28T05:14:23;4.57;;;2.92;;
77324;SDS011;66387;53.440;10.390;2023-02-28T05:16:48;3.60;;;2.67;;
77324;SDS011;66387;53.440;10.390;2023-02-28T05:19:13;3.87;;;2.43;;
77324;SDS011;66387;53.440;10.390;2023-02-28T05:21:48;3.60;;;2.90;;
77324;SDS011;66387;53.440;10.390;2023-02-28T05:24:15;4.40;;;2.95;;
77324;SDS011;66387;53.440;10.390;2023-02-28T05:26:47;6.07;;;3.15;;
77324;SDS011;66387;53.440;10.390;2023-02-28T05:29:13;5.63;;;3.65;;
77324;SDS011;66387;53.440;10.390;2023-02-28T05:31:38;5.20;;;2.80;;
77324;SDS011;66387;53.440;10.390;2023-02-28T05:34:03;4.40;;;2.90;;
77324;SDS011;66387;53.440;10.390;2023-02-28T05:36:29;5.00;;;3.17;;
77324;SDS011;66387;53.440;10.390;2023-02-28T05:38:54;6.43;;;3.10;;
77324;SDS011;66387;53.440;10.390;2023-02-28T05:41:19;6.10;;;3.37;;
77324;SDS011;66387;53.440;10.390;2023-02-28T05:43:45;8.48;;;3.60;;
77324;SDS011;66387;53.440;10.390;2023-02-28T05:46:11;4.55;;;3.53;;
77324;SDS011;66387;53.440;10.390;2023-02-28T05:48:38;4.22;;;2.88;;
77324;SDS011;66387;53.440;10.390;2023-02-28T05:51:05;4.40;;;2.90;;
77324;SDS011;66387;53.440;10.390;2023-02-28T05:53:31;3.60;;;3.00;;
77324;SDS011;66387;53.440;10.390;2023-02-28T05:55:57;3.38;;;2.47;;
77324;SDS011;66387;53.440;10.390;2023-02-28T05:58:23;3.83;;;2.78;;
77324;SDS011;66387;53.440;10.390;2023-02-28T06:00:50;5.38;;;2.80;;
77324;SDS011;66387;53.440;10.390;2023-02-28T06:03:15;3.35;;;3.00;;
77324;SDS011;66387;53.440;10.390;2023-02-28T06:05:41;4.57;;;2.70;;
77324;SDS011;66387;53.440;10.390;2023-02-28T06:08:06;3.55;;;3.00;;
77324;SDS011;66387;53.440;10.390;2023-02-28T06:10:32;4.10;;;3.10;;
77324;SDS011;66387;53.440;10.390;2023-02-28T06:13:01;3.53;;;2.40;;
77324;SDS011;66387;53.440;10.390;2023-02-28T06:15:28;4.97;;;2.85;;
77324;SDS011;66387;53.440;10.390;2023-02-28T06:17:54;4.07;;;3.15;;
77324;SDS011;66387;53.440;10.390;2023-02-28T06:20:21;5.35;;;3.05;;
77324;SDS011;66387;53.440;10.390;2023-02-28T06:22:47;6.45;;;3.00;;
77324;SDS011;66387;53.440;10.390;2023-02-28T06:25:12;4.43;;;2.67;;
77324;SDS011;66387;53.440;10.390;2023-02-28T06:27:38;5.50;;;3.47;;
77324;SDS011;66387;53.440;10.390;2023-02-28T06:30:03;4.70;;;3.20;;
77324;SDS011;66387;53.440;10.390;2023-02-28T06:32:29;5.60;;;3.65;;
77324;SDS011;66387;53.440;10.390;2023-02-28T06:34:54;3.87;;;3.17;;
77324;SDS011;66387;53.440;10.390;2023-02-28T06:37:19;5.90;;;3.25;;
77324;SDS011;66387;53.440;10.390;2023-02-28T06:39:45;6.30;;;3.30;;
77324;SDS011;66387;53.440;10.390;2023-02-28T06:42:10;5.23;;;4.40;;
77324;SDS011;66387;53.440;10.390;2023-02-28T06:44:35;6.53;;;3.88;;
77324;SDS011;66387;53.440;10.390;2023-02-28T06:47:01;5.70;;;5.10;;
77324;SDS011;66387;53.440;10.390;2023-02-28T06:49:28;9.98;;;4.95;;
77324;SDS011;66387;53.440;10.390;2023-02-28T06:51:54;8.13;;;6.25;;
77324;SDS011;66387;53.440;10.390;2023-02-28T06:54:20;10.40;;;5.67;;
77324;SDS011;66387;53.440;10.390;2023-02-28T06:56:45;9.20;;;8.30;;
77324;SDS011;66387;53.440;10.390;2023-02-28T06:59:11;10.25;;;6.38;;
77324;SDS011;66387;53.440;10.390;2023-02-28T07:01:37;7.77;;;5.33;;
77324;SDS011;66387;53.440;10.390;2023-02-28T07:04:04;6.43;;;4.82;;
77324;SDS011;66387;53.440;10.390;2023-02-28T07:06:30;6.40;;;4.80;;
77324;SDS011;66387;53.440;10.390;2023-02-28T07:08:56;8.63;;;4.97;;
77324;SDS011;66387;53.440;10.390;2023-02-28T07:11:22;5.13;;;3.45;;
77324;SDS011;66387;53.440;10.390;2023-02-28T07:13:50;7.68;;;3.88;;
77324;SDS011;66387;53.440;10.390;2023-02-28T07:16:15;5.25;;;3.50;;
77324;SDS011;66387;53.440;10.390;2023-02-28T07:18:41;6.47;;;3.30;;
77324;SDS011;66387;53.440;10.390;2023-02-28T07:21:07;6.37;;;3.90;;
77324;SDS011;66387;53.440;10.390;2023-02-28T07:23:34;5.43;;;3.55;;
77324;SDS011;66387;53.440;10.390;2023-02-28T07:26:00;7.90;;;4.50;;
77324;SDS011;66387;53.440;10.390;2023-02-28T07:28:25;9.70;;;5.22;;
77324;SDS011;66387;53.440;10.390;2023-02-28T07:30:51;5.82;;;3.90;;
77324;SDS011;66387;53.440;10.390;2023-02-28T07:33:17;8.93;;;5.57;;
77324;SDS011;66387;53.440;10.390;2023-02-28T07:35:42;8.98;;;6.70;;
77324;SDS011;66387;53.440;10.390;2023-02-28T07:38:08;8.98;;;6.50;;
77324;SDS011;66387;53.440;10.390;2023-02-28T07:40:34;11.15;;;6.03;;
77324;SDS011;66387;53.440;10.390;2023-02-28T07:43:00;8.00;;;5.38;;
77324;SDS011;66387;53.440;10.390;2023-02-28T07:45:26;10.05;;;4.82;;
77324;SDS011;66387;53.440;10.390;2023-02-28T07:47:54;5.05;;;3.47;;
77324;SDS011;66387;53.440;10.390;2023-02-28T07:50:20;6.43;;;4.43;;
77324;SDS011;66387;53.440;10.390;2023-02-28T07:52:45;6.30;;;3.42;;
77324;SDS011;66387;53.440;10.390;2023-02-28T07:55:10;6.10;;;4.10;;
77324;SDS011;66387;53.440;10.390;2023-02-28T07:57:36;4.75;;;3.78;;
77324;SDS011;66387;53.440;10.390;2023-02-28T08:00:03;4.28;;;3.70;;
77324;SDS011;66387;53.440;10.390;2023-02-28T08:02:30;3.95;;;3.25;;
77324;SDS011;66387;53.440;10.390;2023-02-28T08:04:55;4.57;;;3.57;;
77324;SDS011;66387;53.440;10.390;2023-02-28T08:07:21;4.30;;;3.80;;
77324;SDS011;66387;53.440;10.390;2023-02-28T08:09:46;5.00;;;3.60;;
77324;SDS011;66387;53.440;10.390;2023-02-28T08:12:11;5.33;;;4.13;;
77324;SDS011;66387;53.440;10.390;2023-02-28T08:14:37;8.10;;;4.28;;
77324;SDS011;66387;53.440;10.390;2023-02-28T08:17:02;7.20;;;3.90;;
77324;SDS011;66387;53.440;10.390;2023-02-28T08:19:27;5.85;;;3.38;;
77324;SDS011;66387;53.440;10.390;2023-02-28T08:21:54;5.50;;;3.90;;
77324;SDS011;66387;53.440;10.390;2023-02-28T08:24:19;5.30;;;3.92;;
77324;SDS011;66387;53.440;10.390;2023-02-28T08:26:44;6.87;;;4.77;;
77324;SDS011;66387;53.440;10.390;2023-02-28T08:29:10;7.77;;;5.10;;
77324;SDS011;66387;53.440;10.390;2023-02-28T08:31:35;6.73;;;5.30;;
77324;SDS011;66387;53.440;10.390;2023-02-28T08:34:04;8.23;;;4.90;;
77324;SDS011;66387;53.440;10.390;2023-02-28T08:36:34;6.50;;;4.35;;
77324;SDS011;66387;53.440;10.390;2023-02-28T08:38:59;6.93;;;4.30;;
77324;SDS011;66387;53.440;10.390;2023-02-28T08:41:25;6.10;;;4.20;;
77324;SDS011;66387;53.440;10.390;2023-02-28T08:43:50;7.78;;;5.32;;
77324;SDS011;66387;53.440;10.390;2023-02-28T08:46:16;5.87;;;3.67;;
77324;SDS011;66387;53.440;10.390;2023-02-28T08:48:41;5.73;;;3.93;;
77324;SDS011;66387;53.440;10.390;2023-02-28T08:51:08;3.67;;;3.28;;
77324;SDS011;66387;53.440;10.390;2023-02-28T08:56:02;5.93;;;3.25;;
77324;SDS011;66387;53.440;10.390;2023-02-28T08:58:29;3.92;;;2.88;;
77324;SDS011;66387;53.440;10.390;2023-02-28T09:00:55;4.50;;;2.92;;
77324;SDS011;66387;53.440;10.390;2023-02-28T09:03:20;3.42;;;2.90;;
77324;SDS011;66387;53.440;10.390;2023-02-28T09:05:53;5.05;;;3.63;;
77324;SDS011;66387;53.440;10.390;2023-02-28T09:08:19;4.63;;;3.35;;
77324;SDS011;66387;53.440;10.390;2023-02-28T09:10:45;4.18;;;2.90;;
77324;SDS011;66387;53.440;10.390;2023-02-28T09:13:10;3.97;;;2.90;;
77324;SDS011;66387;53.440;10.390;2023-02-28T09:15:37;3.13;;;2.70;;
77324;SDS011;66387;53.440;10.390;2023-02-28T09:18:03;4.22;;;2.55;;
77324;SDS011;66387;53.440;10.390;2023-02-28T09:20:28;3.10;;;2.65;;
77324;SDS011;66387;53.440;10.390;2023-02-28T09:22:53;2.80;;;2.50;;
77324;SDS011;66387;53.440;10.390;2023-02-28T09:25:19;4.90;;;2.47;;
77324;SDS011;66387;53.440;10.390;2023-02-28T09:27:44;3.57;;;2.50;;
77324;SDS011;66387;53.440;10.390;2023-02-28T09:30:10;3.80;;;2.22;;
77324;SDS011;66387;53.440;10.390;2023-02-28T09:32:36;3.45;;;2.53;;
77324;SDS011;66387;53.440;10.390;2023-02-28T09:35:01;4.73;;;3.50;;
77324;SDS011;66387;53.440;10.390;2023-02-28T09:37:27;3.92;;;3.50;;
77324;SDS011;66387;53.440;10.390;2023-02-28T09:39:55;3.33;;;1.90;;
77324;SDS011;66387;53.440;10.390;2023-02-28T09:42:21;3.10;;;2.07;;
77324;SDS011;66387;53.440;10.390;2023-02-28T09:44:53;3.70;;;1.95;;
77324;SDS011;66387;53.440;10.390;2023-02-28T09:47:25;3.22;;;2.47;;
77324;SDS011;66387;53.440;10.390;2023-02-28T09:49:58;3.40;;;2.75;;
77324;SDS011;66387;53.440;10.390;2023-02-28T09:52:42;5.03;;;2.55;;
77324;SDS011;66387;53.440;10.390;2023-02-28T09:55:18;2.50;;;2.08;;
77324;SDS011;66387;53.440;10.390;2023-02-28T09:57:52;2.40;;;1.70;;
77324;SDS011;66387;53.440;10.390;2023-02-28T10:00:24;4.05;;;2.03;;
77324;SDS011;66387;53.440;10.390;2023-02-28T10:08:36;2.88;;;1.80;;
77324;SDS011;66387;53.440;10.390;2023-02-28T10:11:07;2.65;;;1.85;;
77324;SDS011;66387;53.440;10.390;2023-02-28T10:13:50;5.38;;;2.03;;
77324;SDS011;66387;53.440;10.390;2023-02-28T10:16:25;3.15;;;2.03;;
77324;SDS011;66387;53.440;10.390;2023-02-28T10:21:43;1.95;;;1.65;;
77324;SDS011;66387;53.440;10.390;2023-02-28T10:24:25;2.80;;;1.23;;
77324;SDS011;66387;53.440;10.390;2023-02-28T10:26:56;2.03;;;0.80;;
77324;SDS011;66387;53.440;10.390;2023-02-28T10:29:24;2.33;;;1.60;;
77324;SDS011;66387;53.440;10.390;2023-02-28T10:31:50;2.25;;;1.52;;
77324;SDS011;66387;53.440;10.390;2023-02-28T10:34:15;2.92;;;2.03;;
77324;SDS011;66387;53.440;10.390;2023-02-28T10:36:41;2.40;;;1.50;;
77324;SDS011;66387;53.440;10.390;2023-02-28T10:42:00;3.67;;;2.13;;
77324;SDS011;66387;53.440;10.390;2023-02-28T10:44:25;1.30;;;1.07;;
77324;SDS011;66387;53.440;10.390;2023-02-28T10:46:51;2.55;;;1.58;;
77324;SDS011;66387;53.440;10.390;2023-02-28T10:49:17;2.40;;;1.20;;
77324;SDS011;66387;53.440;10.390;2023-02-28T10:51:46;2.38;;;1.50;;
77324;SDS011;66387;53.440;10.390;2023-02-28T10:54:20;3.92;;;2.20;;
77324;SDS011;66387;53.440;10.390;2023-02-28T10:57:11;2.17;;;1.73;;
77324;SDS011;66387;53.440;10.390;2023-02-28T10:59:42;2.80;;;1.55;;
77324;SDS011;66387;53.440;10.390;2023-02-28T11:04:59;1.90;;;1.60;;
77324;SDS011;66387;53.440;10.390;2023-02-28T11:07:25;3.00;;;1.57;;
77324;SDS011;66387;53.440;10.390;2023-02-28T11:09:53;2.72;;;1.60;;
77324;SDS011;66387;53.440;10.390;2023-02-28T11:15:26;2.58;;;1.80;;
77324;SDS011;66387;53.440;10.390;2023-02-28T11:20:21;2.45;;;1.83;;
77324;SDS011;66387;53.440;10.390;2023-02-28T11:22:53;2.22;;;1.80;;
77324;SDS011;66387;53.440;10.390;2023-02-28T11:25:33;4.18;;;1.83;;
77324;SDS011;66387;53.440;10.390;2023-02-28T11:28:03;2.25;;;1.95;;
77324;SDS011;66387;53.440;10.390;2023-02-28T11:30:49;3.85;;;2.15;;
77324;SDS011;66387;53.440;10.390;2023-02-28T11:38:23;3.35;;;1.90;;
77324;SDS011;66387;53.440;10.390;2023-02-28T11:40:59;3.08;;;2.28;;
77324;SDS011;66387;53.440;10.390;2023-02-28T11:52:01;3.28;;;2.30;;
77324;SDS011;66387;53.440;10.390;2023-02-28T12:05:31;2.80;;;2.33;;
77324;SDS011;66387;53.440;10.390;2023-02-28T12:08:26;3.17;;;1.95;;
77324;SDS011;66387;53.440;10.390;2023-02-28T12:11:17;2.95;;;2.00;;
77324;SDS011;66387;53.440;10.390;2023-02-28T12:14:13;2.67;;;1.90;;
77324;SDS011;66387;53.440;10.390;2023-02-28T12:22:31;2.60;;;2.40;;
77324;SDS011;66387;53.440;10.390;2023-02-28T12:28:16;2.83;;;2.00;;
77324;SDS011;66387;53.440;10.390;2023-02-28T12:30:52;2.20;;;1.90;;
77324;SDS011;66387;53.440;10.390;2023-02-28T12:33:24;2.92;;;1.95;;
77324;SDS011;66387;53.440;10.390;2023-02-28T12:35:56;3.55;;;2.13;;
77324;SDS011;66387;53.440;10.390;2023-02-28T12:38:24;2.88;;;1.70;;
77324;SDS011;66387;53.440;10.390;2023-02-28T12:41:03;2.40;;;2.13;;
77324;SDS011;66387;53.440;10.390;2023-02-28T12:43:37;2.13;;;1.73;;
77324;SDS011;66387;53.440;10.390;2023-02-28T12:46:08;3.42;;;1.85;;
77324;SDS011;66387;53.440;10.390;2023-02-28T12:48:43;5.00;;;2.55;;
77324;SDS011;66387;53.440;10.390;2023-02-28T12:51:12;3.97;;;2.50;;
77324;SDS011;66387;53.440;10.390;2023-02-28T12:53:48;3.53;;;2.28;;
77324;SDS011;66387;53.440;10.390;2023-02-28T12:57:06;3.83;;;1.70;;
77324;SDS011;66387;53.440;10.390;2023-02-28T13:10:38;2.28;;;2.08;;
77324;SDS011;66387;53.440;10.390;2023-02-28T13:13:06;2.65;;;2.03;;
77324;SDS011;66387;53.440;10.390;2023-02-28T13:15:31;2.63;;;1.85;;
77324;SDS011;66387;53.440;10.390;2023-02-28T13:18:00;4.90;;;2.00;;
77324;SDS011;66387;53.440;10.390;2023-02-28T13:20:34;2.63;;;1.80;;
77324;SDS011;66387;53.440;10.390;2023-02-28T13:23:01;2.55;;;1.98;;
77324;SDS011;66387;53.440;10.390;2023-02-28T13:27:57;2.50;;;1.58;;
77324;SDS011;66387;53.440;10.390;2023-02-28T13:38:47;3.88;;;2.03;;
77324;SDS011;66387;53.440;10.390;2023-02-28T13:44:07;3.27;;;1.80;;
77324;SDS011;66387;53.440;10.390;2023-02-28T13:47:24;2.50;;;2.15;;
77324;SDS011;66387;53.440;10.390;2023-02-28T13:49:27;3.15;;;1.67;;
77324;SDS011;66387;53.440;10.390;2023-02-28T13:52:14;2.75;;;1.45;;
77324;SDS011;66387;53.440;10.390;2023-02-28T13:54:57;2.50;;;2.30;;
77324;SDS011;66387;53.440;10.390;2023-02-28T14:00:22;4.18;;;2.00;;
77324;SDS011;66387;53.440;10.390;2023-02-28T14:03:03;1.70;;;1.50;;
77324;SDS011;66387;53.440;10.390;2023-02-28T14:05:40;3.20;;;1.88;;
77324;SDS011;66387;53.440;10.390;2023-02-28T14:08:08;2.92;;;1.58;;
77324;SDS011;66387;53.440;10.390;2023-02-28T14:15:59;2.40;;;1.80;;
77324;SDS011;66387;53.440;10.390;2023-02-28T14:18:36;2.03;;;1.55;;
77324;SDS011;66387;53.440;10.390;2023-02-28T14:21:09;3.53;;;1.80;;
77324;SDS011;66387;53.440;10.390;2023-02-28T14:23:58;1.90;;;1.40;;
77324;SDS011;66387;53.440;10.390;2023-02-28T14:29:39;2.30;;;1.55;;
77324;SDS011;66387;53.440;10.390;2023-02-28T14:37:51;1.92;;;1.27;;
77324;SDS011;66387;53.440;10.390;2023-02-28T14:40:24;1.73;;;1.48;;
77324;SDS011;66387;53.440;10.390;2023-02-28T14:45:24;2.28;;;1.58;;
77324;SDS011;66387;53.440;10.390;2023-02-28T14:47:53;1.88;;;1.25;;
77324;SDS011;66387;53.440;10.390;2023-02-28T14:50:20;2.13;;;1.55;;
77324;SDS011;66387;53.440;10.390;2023-02-28T14:52:47;6.22;;;2.83;;
77324;SDS011;66387;53.440;10.390;2023-02-28T14:55:17;3.10;;;1.75;;
77324;SDS011;66387;53.440;10.390;2023-02-28T15:00:25;1.92;;;1.33;;
77324;SDS011;66387;53.440;10.390;2023-02-28T15:02:53;1.65;;;1.42;;
77324;SDS011;66387;53.440;10.390;2023-02-28T15:05:23;3.00;;;1.33;;
77324;SDS011;66387;53.440;10.390;2023-02-28T15:08:14;2.25;;;1.52;;
77324;SDS011;66387;53.440;10.390;2023-02-28T15:10:44;2.70;;;1.48;;
77324;SDS011;66387;53.440;10.390;2023-02-28T15:13:44;2.15;;;1.60;;
77324;SDS011;66387;53.440;10.390;2023-02-28T15:16:22;3.45;;;1.50;;
77324;SDS011;66387;53.440;10.390;2023-02-28T15:18:52;3.53;;;1.75;;
77324;SDS011;66387;53.440;10.390;2023-02-28T15:21:22;1.92;;;1.35;;
77324;SDS011;66387;53.440;10.390;2023-02-28T15:23:53;2.45;;;1.50;;
77324;SDS011;66387;53.440;10.390;2023-02-28T15:26:22;2.47;;;1.50;;
77324;SDS011;66387;53.440;10.390;2023-02-28T15:29:03;1.92;;;1.42;;
77324;SDS011;66387;53.440;10.390;2023-02-28T15:31:35;2.08;;;1.63;;
77324;SDS011;66387;53.440;10.390;2023-02-28T15:34:06;2.65;;;1.80;;
77324;SDS011;66387;53.440;10.390;2023-02-28T15:36:40;2.00;;;1.52;;
77324;SDS011;66387;53.440;10.390;2023-02-28T15:39:19;2.50;;;1.77;;
77324;SDS011;66387;53.440;10.390;2023-02-28T15:44:24;2.40;;;1.60;;
77324;SDS011;66387;53.440;10.390;2023-02-28T15:49:51;3.10;;;1.63;;
77324;SDS011;66387;53.440;10.390;2023-02-28T15:52:20;2.03;;;1.48;;
77324;SDS011;66387;53.440;10.390;2023-02-28T15:54:49;2.83;;;2.00;;
77324;SDS011;66387;53.440;10.390;2023-02-28T15:57:19;2.28;;;1.60;;
77324;SDS011;66387;53.440;10.390;2023-02-28T15:59:56;2.42;;;1.77;;
77324;SDS011;66387;53.440;10.390;2023-02-28T16:02:32;2.42;;;1.25;;
77324;SDS011;66387;53.440;10.390;2023-02-28T16:07:34;2.15;;;1.42;;
77324;SDS011;66387;53.440;10.390;2023-02-28T16:10:00;4.05;;;1.90;;
77324;SDS011;66387;53.440;10.390;2023-02-28T16:12:27;4.18;;;1.83;;
77324;SDS011;66387;53.440;10.390;2023-02-28T16:14:55;1.77;;;1.67;;
77324;SDS011;66387;53.440;10.390;2023-02-28T16:17:26;3.42;;;1.70;;
77324;SDS011;66387;53.440;10.390;2023-02-28T16:19:54;1.60;;;1.38;;
77324;SDS011;66387;53.440;10.390;2023-02-28T16:22:20;2.80;;;1.95;;
77324;SDS011;66387;53.440;10.390;2023-02-28T16:24:46;2.15;;;1.80;;
77324;SDS011;66387;53.440;10.390;2023-02-28T16:27:15;3.30;;;1.65;;
77324;SDS011;66387;53.440;10.390;2023-02-28T16:29:43;3.78;;;1.80;;
77324;SDS011;66387;53.440;10.390;2023-02-28T16:32:10;1.85;;;1.60;;
77324;SDS011;66387;53.440;10.390;2023-02-28T16:34:38;3.72;;;1.80;;
77324;SDS011;66387;53.440;10.390;2023-02-28T16:37:04;4.20;;;2.33;;
77324;SDS011;66387;53.440;10.390;2023-02-28T16:39:36;4.00;;;1.90;;
77324;SDS011;66387;53.440;10.390;2023-02-28T16:42:01;5.13;;;2.80;;
77324;SDS011;66387;53.440;10.390;2023-02-28T16:44:27;3.88;;;2.65;;
77324;SDS011;66387;53.440;10.390;2023-02-28T16:46:55;5.50;;;2.60;;
77324;SDS011;66387;53.440;10.390;2023-02-28T16:49:20;2.85;;;2.10;;
77324;SDS011;66387;53.440;10.390;2023-02-28T16:51:46;4.63;;;2.60;;
77324;SDS011;66387;53.440;10.390;2023-02-28T16:54:11;5.20;;;3.00;;
77324;SDS011;66387;53.440;10.390;2023-02-28T16:56:36;4.80;;;3.40;;
77324;SDS011;66387;53.440;10.390;2023-02-28T16:59:07;5.28;;;3.80;;
77324;SDS011;66387;53.440;10.390;2023-02-28T17:01:33;6.95;;;4.80;;
77324;SDS011;66387;53.440;10.390;2023-02-28T17:03:59;11.80;;;8.57;;
77324;SDS011;66387;53.440;10.390;2023-02-28T17:06:25;6.50;;;5.50;;
77324;SDS011;66387;53.440;10.390;2023-02-28T17:08:55;8.45;;;5.63;;